Huntington Beach, CA (92649)

6:26 PM PST on February 20, 2017 (GMT -0800)
S of Graham and Warner | | Change Station

Elev 2 ft 33.71 °N, 118.03 °W | Updated 3 minutes ago

Overcast
Overcast
59.3 °F
Feels Like 59.3 °F
N
0.0
Wind Variable Wind from SSE
Gusts 3.0 mph

Today
High -- | Low -- °F
--% Chance of Precip.
Yesterday
High -- | Low -- °F
Precip. -- in
Pressure 30.28 in
Visibility 10.0 miles
Clouds Scattered Clouds 2400 ft
Overcast 3200 ft
Dew Point 56 °F
Humidity 88%
Rainfall 0.02 in
Snow Depth Not available.
6:30 AM 5:41 PM
Waning Crescent, 29% visible
SPECI KSLI 210218Z AUTO 19004KT 10SM SCT024 OVC032 15/12 A3028 RMK AO2
Pressure 30.28 in
Visibility 10.0 miles
Clouds Scattered Clouds 2400 ft
Overcast 3200 ft
Dew Point 56 °F
Humidity 88%
Rainfall 0.02 in
Snow Depth Not available.
6:30 AM 5:41 PM
Waning Crescent, 29% visible
SPECI KSLI 210218Z AUTO 19004KT 10SM SCT024 OVC032 15/12 A3028 RMK AO2

Get Your Daily Forecast Email!

Thanks for signing up!

Be on the lookout for a verification email in your inbox.

You'll start receiving the daily forecast at 8 AM.

×

10-Day Weather Forecast

Almanac

Astronomy

Feb. 20, 2017 Rise Set
Actual Time
Civil Twilight
Nautical Twilight
Astronomical Twilight
Moon
Length of Visible Light
Length of Day
Tomorrow will be .
, % of the Moon is Illuminated

Today's Extremes

State Highs State Lows

Community

WunderPhotos

Upload Photos

1,962,540 photos uploaded!

WunderBlog® & News

Nearby

Air Quality

  Air Quality AQ Index Pollutant
Not available.

Snow Depth

Station Depth Elevation

Earthquake Activity

City Distance Mag. Time & Date
Minimum magnitude displayed is 2.5.

Coastal Water Temperatures

Place Temperature

Stations

Nearby Weather Stations

Station Location Temp. Windchill Dew Point Humidity Wind Precip. Elev Updated Type
                   

Watches & Warnings

There are currently no watches in effect.